sensor_id;sensor_type;location;lat;lon;timestamp;P1;durP1;ratioP1;P2;durP2;ratioP2
71767;SDS011;59604;52.138;5.446;2022-11-23T00:03:40;21.40;;;7.13;;
71767;SDS011;59604;52.138;5.446;2022-11-23T00:06:07;17.58;;;7.00;;
71767;SDS011;59604;52.138;5.446;2022-11-23T00:08:34;16.83;;;7.05;;
71767;SDS011;59604;52.138;5.446;2022-11-23T00:11:01;17.10;;;7.32;;
71767;SDS011;59604;52.138;5.446;2022-11-23T00:13:28;19.02;;;7.15;;
71767;SDS011;59604;52.138;5.446;2022-11-23T00:15:54;20.90;;;7.53;;
71767;SDS011;59604;52.138;5.446;2022-11-23T00:18:21;20.60;;;7.80;;
71767;SDS011;59604;52.138;5.446;2022-11-23T00:20:48;19.48;;;8.13;;
71767;SDS011;59604;52.138;5.446;2022-11-23T00:23:15;23.27;;;8.00;;
71767;SDS011;59604;52.138;5.446;2022-11-23T00:25:45;18.90;;;8.02;;
71767;SDS011;59604;52.138;5.446;2022-11-23T00:28:12;19.80;;;8.23;;
71767;SDS011;59604;52.138;5.446;2022-11-23T00:30:38;23.90;;;8.82;;
71767;SDS011;59604;52.138;5.446;2022-11-23T00:33:06;18.00;;;7.63;;
71767;SDS011;59604;52.138;5.446;2022-11-23T00:35:33;23.10;;;9.07;;
71767;SDS011;59604;52.138;5.446;2022-11-23T00:37:59;20.02;;;7.97;;
71767;SDS011;59604;52.138;5.446;2022-11-23T00:40:26;20.23;;;8.20;;
71767;SDS011;59604;52.138;5.446;2022-11-23T00:43:00;19.95;;;8.73;;
71767;SDS011;59604;52.138;5.446;2022-11-23T00:45:27;23.55;;;8.75;;
71767;SDS011;59604;52.138;5.446;2022-11-23T00:47:54;23.33;;;9.93;;
71767;SDS011;59604;52.138;5.446;2022-11-23T00:50:21;23.42;;;9.73;;
71767;SDS011;59604;52.138;5.446;2022-11-23T00:52:48;22.25;;;8.65;;
71767;SDS011;59604;52.138;5.446;2022-11-23T00:55:14;23.05;;;9.55;;
71767;SDS011;59604;52.138;5.446;2022-11-23T00:57:41;23.92;;;9.85;;
71767;SDS011;59604;52.138;5.446;2022-11-23T01:00:08;27.48;;;10.38;;
71767;SDS011;59604;52.138;5.446;2022-11-23T01:02:37;23.67;;;9.45;;
71767;SDS011;59604;52.138;5.446;2022-11-23T01:05:05;24.65;;;9.60;;
71767;SDS011;59604;52.138;5.446;2022-11-23T01:07:32;22.35;;;10.25;;
71767;SDS011;59604;52.138;5.446;2022-11-23T01:09:58;22.50;;;9.38;;
71767;SDS011;59604;52.138;5.446;2022-11-23T01:12:26;26.65;;;10.18;;
71767;SDS011;59604;52.138;5.446;2022-11-23T01:19:47;21.95;;;8.82;;
71767;SDS011;59604;52.138;5.446;2022-11-23T01:22:14;25.20;;;9.23;;
71767;SDS011;59604;52.138;5.446;2022-11-23T02:41:57;16.38;;;6.38;;
71767;SDS011;59604;52.138;5.446;2022-11-23T02:44:41;16.95;;;6.80;;
71767;SDS011;59604;52.138;5.446;2022-11-23T02:47:09;17.08;;;6.40;;
71767;SDS011;59604;52.138;5.446;2022-11-23T02:49:36;17.40;;;5.93;;
71767;SDS011;59604;52.138;5.446;2022-11-23T02:52:06;18.40;;;6.22;;
71767;SDS011;59604;52.138;5.446;2022-11-23T02:54:34;13.88;;;5.68;;
71767;SDS011;59604;52.138;5.446;2022-11-23T02:57:01;19.23;;;6.43;;
71767;SDS011;59604;52.138;5.446;2022-11-23T02:59:29;18.88;;;6.00;;
71767;SDS011;59604;52.138;5.446;2022-11-23T03:01:58;16.85;;;6.13;;
71767;SDS011;59604;52.138;5.446;2022-11-23T03:04:25;17.42;;;5.88;;
71767;SDS011;59604;52.138;5.446;2022-11-23T03:06:53;18.98;;;6.53;;
71767;SDS011;59604;52.138;5.446;2022-11-23T03:09:20;17.80;;;5.72;;
71767;SDS011;59604;52.138;5.446;2022-11-23T03:11:53;15.38;;;5.93;;
71767;SDS011;59604;52.138;5.446;2022-11-23T03:14:20;15.23;;;6.05;;
71767;SDS011;59604;52.138;5.446;2022-11-23T03:16:47;16.20;;;5.90;;
71767;SDS011;59604;52.138;5.446;2022-11-23T03:19:14;17.30;;;5.85;;
71767;SDS011;59604;52.138;5.446;2022-11-23T03:21:40;14.93;;;5.68;;
71767;SDS011;59604;52.138;5.446;2022-11-23T03:24:07;15.70;;;6.03;;
71767;SDS011;59604;52.138;5.446;2022-11-23T03:26:34;17.95;;;5.63;;
71767;SDS011;59604;52.138;5.446;2022-11-23T03:29:00;15.27;;;5.90;;
71767;SDS011;59604;52.138;5.446;2022-11-23T03:31:27;18.75;;;5.47;;
71767;SDS011;59604;52.138;5.446;2022-11-23T03:33:53;13.80;;;5.53;;
71767;SDS011;59604;52.138;5.446;2022-11-23T03:36:20;19.00;;;6.03;;
71767;SDS011;59604;52.138;5.446;2022-11-23T03:38:47;18.65;;;5.63;;
71767;SDS011;59604;52.138;5.446;2022-11-23T03:41:13;15.20;;;5.40;;
71767;SDS011;59604;52.138;5.446;2022-11-23T03:43:40;16.33;;;5.18;;
71767;SDS011;59604;52.138;5.446;2022-11-23T03:46:07;14.27;;;5.82;;
71767;SDS011;59604;52.138;5.446;2022-11-23T03:48:34;13.75;;;5.18;;
71767;SDS011;59604;52.138;5.446;2022-11-23T03:51:00;14.55;;;5.00;;
71767;SDS011;59604;52.138;5.446;2022-11-23T03:53:27;14.75;;;5.35;;
71767;SDS011;59604;52.138;5.446;2022-11-23T03:55:54;13.88;;;4.53;;
71767;SDS011;59604;52.138;5.446;2022-11-23T03:58:22;12.43;;;4.70;;
71767;SDS011;59604;52.138;5.446;2022-11-23T04:00:49;13.40;;;4.63;;
71767;SDS011;59604;52.138;5.446;2022-11-23T04:03:15;12.27;;;4.43;;
71767;SDS011;59604;52.138;5.446;2022-11-23T04:05:42;12.23;;;4.22;;
71767;SDS011;59604;52.138;5.446;2022-11-23T04:08:09;14.45;;;4.85;;
71767;SDS011;59604;52.138;5.446;2022-11-23T04:10:36;12.50;;;5.10;;
71767;SDS011;59604;52.138;5.446;2022-11-23T04:13:02;12.23;;;4.35;;
71767;SDS011;59604;52.138;5.446;2022-11-23T04:15:29;12.15;;;4.28;;
71767;SDS011;59604;52.138;5.446;2022-11-23T04:17:56;11.73;;;3.88;;
71767;SDS011;59604;52.138;5.446;2022-11-23T04:20:22;11.02;;;3.90;;
71767;SDS011;59604;52.138;5.446;2022-11-23T04:22:49;10.52;;;4.13;;
71767;SDS011;59604;52.138;5.446;2022-11-23T04:25:16;13.48;;;4.10;;
71767;SDS011;59604;52.138;5.446;2022-11-23T04:27:43;9.68;;;3.78;;
71767;SDS011;59604;52.138;5.446;2022-11-23T04:30:10;9.95;;;4.00;;
71767;SDS011;59604;52.138;5.446;2022-11-23T04:32:38;12.35;;;3.92;;
71767;SDS011;59604;52.138;5.446;2022-11-23T04:35:05;13.88;;;3.92;;
71767;SDS011;59604;52.138;5.446;2022-11-23T04:37:31;11.10;;;3.78;;
71767;SDS011;59604;52.138;5.446;2022-11-23T04:39:58;9.68;;;3.55;;
71767;SDS011;59604;52.138;5.446;2022-11-23T04:42:26;10.75;;;3.92;;
71767;SDS011;59604;52.138;5.446;2022-11-23T04:44:53;12.90;;;4.50;;
71767;SDS011;59604;52.138;5.446;2022-11-23T04:47:20;15.93;;;4.35;;
71767;SDS011;59604;52.138;5.446;2022-11-23T04:49:47;14.10;;;3.78;;
71767;SDS011;59604;52.138;5.446;2022-11-23T04:52:13;12.65;;;4.10;;
71767;SDS011;59604;52.138;5.446;2022-11-23T04:54:40;16.00;;;4.05;;
71767;SDS011;59604;52.138;5.446;2022-11-23T04:57:08;10.60;;;3.83;;
71767;SDS011;59604;52.138;5.446;2022-11-23T04:59:35;15.57;;;4.20;;
71767;SDS011;59604;52.138;5.446;2022-11-23T05:02:02;13.35;;;3.97;;
71767;SDS011;59604;52.138;5.446;2022-11-23T05:04:30;14.70;;;4.13;;
71767;SDS011;59604;52.138;5.446;2022-11-23T05:06:57;13.65;;;4.25;;
71767;SDS011;59604;52.138;5.446;2022-11-23T05:09:24;14.70;;;4.47;;
71767;SDS011;59604;52.138;5.446;2022-11-23T05:11:51;10.65;;;3.63;;
71767;SDS011;59604;52.138;5.446;2022-11-23T05:14:17;9.05;;;3.00;;
71767;SDS011;59604;52.138;5.446;2022-11-23T05:16:44;14.85;;;3.88;;
71767;SDS011;59604;52.138;5.446;2022-11-23T05:19:10;14.35;;;3.78;;
71767;SDS011;59604;52.138;5.446;2022-11-23T05:21:37;14.05;;;3.78;;
71767;SDS011;59604;52.138;5.446;2022-11-23T05:24:04;11.57;;;3.90;;
71767;SDS011;59604;52.138;5.446;2022-11-23T05:26:31;11.93;;;4.40;;
71767;SDS011;59604;52.138;5.446;2022-11-23T05:28:57;13.40;;;3.75;;
71767;SDS011;59604;52.138;5.446;2022-11-23T05:31:24;10.02;;;3.60;;
71767;SDS011;59604;52.138;5.446;2022-11-23T05:33:51;11.60;;;3.75;;
71767;SDS011;59604;52.138;5.446;2022-11-23T05:36:17;12.60;;;3.45;;
71767;SDS011;59604;52.138;5.446;2022-11-23T05:38:44;12.73;;;3.38;;
71767;SDS011;59604;52.138;5.446;2022-11-23T05:41:15;11.95;;;3.38;;
71767;SDS011;59604;52.138;5.446;2022-11-23T05:43:49;15.10;;;3.35;;
71767;SDS011;59604;52.138;5.446;2022-11-23T05:46:16;8.65;;;3.00;;
71767;SDS011;59604;52.138;5.446;2022-11-23T05:48:42;11.50;;;3.20;;
71767;SDS011;59604;52.138;5.446;2022-11-23T05:51:09;10.40;;;2.90;;
71767;SDS011;59604;52.138;5.446;2022-11-23T05:53:36;14.43;;;3.58;;
71767;SDS011;59604;52.138;5.446;2022-11-23T05:56:03;11.35;;;3.20;;
71767;SDS011;59604;52.138;5.446;2022-11-23T05:58:29;13.18;;;3.15;;
71767;SDS011;59604;52.138;5.446;2022-11-23T06:00:59;14.77;;;3.20;;
71767;SDS011;59604;52.138;5.446;2022-11-23T06:03:26;12.75;;;3.33;;
71767;SDS011;59604;52.138;5.446;2022-11-23T06:05:53;9.05;;;3.00;;
71767;SDS011;59604;52.138;5.446;2022-11-23T06:08:19;9.38;;;2.85;;
71767;SDS011;59604;52.138;5.446;2022-11-23T06:10:46;14.38;;;3.45;;
71767;SDS011;59604;52.138;5.446;2022-11-23T06:13:14;9.18;;;3.10;;
71767;SDS011;59604;52.138;5.446;2022-11-23T06:15:41;13.00;;;3.78;;
71767;SDS011;59604;52.138;5.446;2022-11-23T06:18:08;13.18;;;3.50;;
71767;SDS011;59604;52.138;5.446;2022-11-23T06:20:35;8.73;;;3.17;;
71767;SDS011;59604;52.138;5.446;2022-11-23T06:23:02;10.75;;;3.10;;
71767;SDS011;59604;52.138;5.446;2022-11-23T06:25:29;13.40;;;3.33;;
71767;SDS011;59604;52.138;5.446;2022-11-23T06:27:56;12.60;;;3.40;;
71767;SDS011;59604;52.138;5.446;2022-11-23T06:30:24;9.90;;;3.13;;
71767;SDS011;59604;52.138;5.446;2022-11-23T06:32:51;14.07;;;3.70;;
71767;SDS011;59604;52.138;5.446;2022-11-23T06:35:18;12.18;;;3.03;;
71767;SDS011;59604;52.138;5.446;2022-11-23T06:37:46;7.25;;;2.50;;
71767;SDS011;59604;52.138;5.446;2022-11-23T06:40:14;9.25;;;3.40;;
71767;SDS011;59604;52.138;5.446;2022-11-23T06:42:42;11.55;;;2.78;;
71767;SDS011;59604;52.138;5.446;2022-11-23T06:45:08;9.80;;;2.83;;
71767;SDS011;59604;52.138;5.446;2022-11-23T06:47:35;9.63;;;2.75;;
71767;SDS011;59604;52.138;5.446;2022-11-23T06:50:02;11.77;;;3.17;;
71767;SDS011;59604;52.138;5.446;2022-11-23T06:52:29;11.65;;;3.08;;
71767;SDS011;59604;52.138;5.446;2022-11-23T06:54:56;11.18;;;2.90;;
71767;SDS011;59604;52.138;5.446;2022-11-23T06:57:23;8.68;;;2.58;;
71767;SDS011;59604;52.138;5.446;2022-11-23T06:59:49;16.60;;;3.40;;
71767;SDS011;59604;52.138;5.446;2022-11-23T07:02:17;9.25;;;2.60;;
71767;SDS011;59604;52.138;5.446;2022-11-23T07:04:44;10.48;;;2.70;;
71767;SDS011;59604;52.138;5.446;2022-11-23T07:07:10;9.80;;;2.42;;
71767;SDS011;59604;52.138;5.446;2022-11-23T07:09:37;10.73;;;3.10;;
71767;SDS011;59604;52.138;5.446;2022-11-23T07:12:04;11.20;;;2.38;;
71767;SDS011;59604;52.138;5.446;2022-11-23T07:14:31;10.77;;;2.97;;
71767;SDS011;59604;52.138;5.446;2022-11-23T07:16:57;8.90;;;2.35;;
71767;SDS011;59604;52.138;5.446;2022-11-23T07:19:24;10.10;;;2.13;;
71767;SDS011;59604;52.138;5.446;2022-11-23T07:21:50;9.40;;;2.13;;
71767;SDS011;59604;52.138;5.446;2022-11-23T07:24:17;12.57;;;2.55;;
71767;SDS011;59604;52.138;5.446;2022-11-23T07:26:44;9.57;;;1.75;;
71767;SDS011;59604;52.138;5.446;2022-11-23T07:29:10;9.60;;;1.98;;
71767;SDS011;59604;52.138;5.446;2022-11-23T07:31:37;8.57;;;1.90;;
71767;SDS011;59604;52.138;5.446;2022-11-23T07:34:03;11.70;;;1.85;;
71767;SDS011;59604;52.138;5.446;2022-11-23T07:36:30;9.93;;;1.95;;
71767;SDS011;59604;52.138;5.446;2022-11-23T07:38:57;12.18;;;1.80;;
71767;SDS011;59604;52.138;5.446;2022-11-23T07:41:23;8.80;;;2.22;;
71767;SDS011;59604;52.138;5.446;2022-11-23T07:48:45;5.93;;;1.52;;
71767;SDS011;59604;52.138;5.446;2022-11-23T07:51:12;9.10;;;1.83;;
71767;SDS011;59604;52.138;5.446;2022-11-23T07:53:39;9.63;;;1.70;;
71767;SDS011;59604;52.138;5.446;2022-11-23T07:56:05;9.50;;;1.63;;
71767;SDS011;59604;52.138;5.446;2022-11-23T07:58:32;10.93;;;1.80;;
71767;SDS011;59604;52.138;5.446;2022-11-23T08:00:59;11.70;;;1.90;;
71767;SDS011;59604;52.138;5.446;2022-11-23T08:03:26;9.63;;;1.60;;
71767;SDS011;59604;52.138;5.446;2022-11-23T08:05:54;12.52;;;2.15;;
71767;SDS011;59604;52.138;5.446;2022-11-23T08:08:21;9.73;;;1.52;;
71767;SDS011;59604;52.138;5.446;2022-11-23T08:10:48;12.50;;;1.80;;
71767;SDS011;59604;52.138;5.446;2022-11-23T08:13:20;14.63;;;1.88;;
71767;SDS011;59604;52.138;5.446;2022-11-23T08:15:47;10.45;;;1.52;;
71767;SDS011;59604;52.138;5.446;2022-11-23T08:18:20;10.30;;;1.63;;
71767;SDS011;59604;52.138;5.446;2022-11-23T08:20:48;13.68;;;1.83;;
71767;SDS011;59604;52.138;5.446;2022-11-23T08:23:15;10.55;;;2.00;;
71767;SDS011;59604;52.138;5.446;2022-11-23T08:25:41;11.60;;;1.80;;
71767;SDS011;59604;52.138;5.446;2022-11-23T08:28:08;9.38;;;1.60;;
71767;SDS011;59604;52.138;5.446;2022-11-23T08:30:35;9.48;;;1.50;;
71767;SDS011;59604;52.138;5.446;2022-11-23T08:33:03;11.82;;;1.77;;
71767;SDS011;59604;52.138;5.446;2022-11-23T08:35:34;10.82;;;1.60;;
71767;SDS011;59604;52.138;5.446;2022-11-23T08:38:02;8.80;;;1.45;;
71767;SDS011;59604;52.138;5.446;2022-11-23T08:40:29;9.93;;;1.67;;
71767;SDS011;59604;52.138;5.446;2022-11-23T08:42:56;9.63;;;1.90;;
71767;SDS011;59604;52.138;5.446;2022-11-23T08:45:23;9.27;;;1.67;;
71767;SDS011;59604;52.138;5.446;2022-11-23T08:47:50;11.27;;;2.00;;
71767;SDS011;59604;52.138;5.446;2022-11-23T08:50:17;8.85;;;1.50;;
71767;SDS011;59604;52.138;5.446;2022-11-23T08:52:45;7.32;;;1.55;;
71767;SDS011;59604;52.138;5.446;2022-11-23T08:55:11;10.70;;;1.88;;
71767;SDS011;59604;52.138;5.446;2022-11-23T08:57:38;10.65;;;2.08;;
71767;SDS011;59604;52.138;5.446;2022-11-23T09:00:05;13.63;;;1.80;;
71767;SDS011;59604;52.138;5.446;2022-11-23T09:02:32;11.88;;;1.60;;
71767;SDS011;59604;52.138;5.446;2022-11-23T09:04:58;12.75;;;1.70;;
71767;SDS011;59604;52.138;5.446;2022-11-23T09:07:26;6.10;;;1.30;;
71767;SDS011;59604;52.138;5.446;2022-11-23T09:09:52;9.00;;;1.48;;
71767;SDS011;59604;52.138;5.446;2022-11-23T09:12:19;7.82;;;1.63;;
71767;SDS011;59604;52.138;5.446;2022-11-23T09:14:45;12.20;;;1.80;;
71767;SDS011;59604;52.138;5.446;2022-11-23T09:17:12;7.78;;;1.65;;
71767;SDS011;59604;52.138;5.446;2022-11-23T09:19:39;10.43;;;1.67;;
71767;SDS011;59604;52.138;5.446;2022-11-23T09:22:05;9.77;;;1.50;;
71767;SDS011;59604;52.138;5.446;2022-11-23T09:24:32;10.77;;;1.60;;
71767;SDS011;59604;52.138;5.446;2022-11-23T09:26:59;10.20;;;1.65;;
71767;SDS011;59604;52.138;5.446;2022-11-23T09:29:26;7.80;;;1.45;;
71767;SDS011;59604;52.138;5.446;2022-11-23T09:31:53;9.52;;;1.52;;
71767;SDS011;59604;52.138;5.446;2022-11-23T09:34:20;8.05;;;1.50;;
71767;SDS011;59604;52.138;5.446;2022-11-23T09:36:47;10.75;;;1.40;;
71767;SDS011;59604;52.138;5.446;2022-11-23T09:39:14;7.65;;;1.48;;
71767;SDS011;59604;52.138;5.446;2022-11-23T09:44:24;12.55;;;1.60;;
71767;SDS011;59604;52.138;5.446;2022-11-23T09:50:17;9.23;;;1.65;;
71767;SDS011;59604;52.138;5.446;2022-11-23T09:52:48;8.38;;;1.60;;
71767;SDS011;59604;52.138;5.446;2022-11-23T09:55:20;8.68;;;1.60;;
71767;SDS011;59604;52.138;5.446;2022-11-23T09:57:55;8.27;;;1.58;;
71767;SDS011;59604;52.138;5.446;2022-11-23T10:00:27;6.47;;;1.25;;
71767;SDS011;59604;52.138;5.446;2022-11-23T10:03:00;8.40;;;1.60;;
71767;SDS011;59604;52.138;5.446;2022-11-23T10:05:28;10.25;;;1.63;;
71767;SDS011;59604;52.138;5.446;2022-11-23T10:11:15;8.40;;;1.40;;
71767;SDS011;59604;52.138;5.446;2022-11-23T10:22:11;11.10;;;1.38;;
71767;SDS011;59604;52.138;5.446;2022-11-23T10:24:41;10.27;;;1.55;;
71767;SDS011;59604;52.138;5.446;2022-11-23T10:27:19;10.48;;;1.33;;
71767;SDS011;59604;52.138;5.446;2022-11-23T10:29:48;9.80;;;1.40;;
71767;SDS011;59604;52.138;5.446;2022-11-23T10:32:25;10.98;;;1.83;;
71767;SDS011;59604;52.138;5.446;2022-11-23T10:35:11;12.70;;;1.80;;
71767;SDS011;59604;52.138;5.446;2022-11-23T10:37:40;10.68;;;1.60;;
71767;SDS011;59604;52.138;5.446;2022-11-23T10:42:53;7.15;;;1.15;;
71767;SDS011;59604;52.138;5.446;2022-11-23T10:45:26;9.70;;;1.20;;
71767;SDS011;59604;52.138;5.446;2022-11-23T10:48:02;7.55;;;1.25;;
71767;SDS011;59604;52.138;5.446;2022-11-23T10:50:37;13.02;;;1.85;;
71767;SDS011;59604;52.138;5.446;2022-11-23T10:55:52;8.70;;;1.30;;
71767;SDS011;59604;52.138;5.446;2022-11-23T10:58:25;7.95;;;1.60;;
71767;SDS011;59604;52.138;5.446;2022-11-23T11:01:05;6.88;;;1.50;;
71767;SDS011;59604;52.138;5.446;2022-11-23T11:03:37;8.30;;;1.60;;
71767;SDS011;59604;52.138;5.446;2022-11-23T11:06:05;11.15;;;1.70;;
71767;SDS011;59604;52.138;5.446;2022-11-23T11:08:54;10.90;;;2.22;;
71767;SDS011;59604;52.138;5.446;2022-11-23T11:11:28;8.43;;;1.63;;
71767;SDS011;59604;52.138;5.446;2022-11-23T11:14:31;9.95;;;1.63;;
71767;SDS011;59604;52.138;5.446;2022-11-23T11:16:54;11.77;;;1.50;;
71767;SDS011;59604;52.138;5.446;2022-11-23T11:21:53;8.18;;;1.60;;
71767;SDS011;59604;52.138;5.446;2022-11-23T11:24:22;8.25;;;1.30;;
71767;SDS011;59604;52.138;5.446;2022-11-23T11:26:59;8.10;;;1.63;;
71767;SDS011;59604;52.138;5.446;2022-11-23T11:29:32;6.82;;;1.30;;
71767;SDS011;59604;52.138;5.446;2022-11-23T11:37:36;8.63;;;1.52;;
71767;SDS011;59604;52.138;5.446;2022-11-23T11:40:50;9.32;;;1.60;;
71767;SDS011;59604;52.138;5.446;2022-11-23T11:46:07;10.98;;;1.80;;
71767;SDS011;59604;52.138;5.446;2022-11-23T11:49:02;10.30;;;1.75;;
71767;SDS011;59604;52.138;5.446;2022-11-23T12:00:12;7.75;;;1.45;;
71767;SDS011;59604;52.138;5.446;2022-11-23T12:02:43;9.90;;;1.30;;
71767;SDS011;59604;52.138;5.446;2022-11-23T12:05:31;6.85;;;1.30;;
71767;SDS011;59604;52.138;5.446;2022-11-23T12:11:09;7.22;;;1.40;;
71767;SDS011;59604;52.138;5.446;2022-11-23T12:13:39;5.47;;;1.25;;
71767;SDS011;59604;52.138;5.446;2022-11-23T12:21:15;4.60;;;1.33;;
71767;SDS011;59604;52.138;5.446;2022-11-23T12:32:08;6.07;;;1.00;;
71767;SDS011;59604;52.138;5.446;2022-11-23T12:46:10;6.03;;;1.10;;
71767;SDS011;59604;52.138;5.446;2022-11-23T12:48:55;5.78;;;1.40;;
71767;SDS011;59604;52.138;5.446;2022-11-23T13:00:04;8.43;;;1.52;;
71767;SDS011;59604;52.138;5.446;2022-11-23T13:08:21;5.85;;;1.00;;
71767;SDS011;59604;52.138;5.446;2022-11-23T13:17:12;6.50;;;1.25;;
71767;SDS011;59604;52.138;5.446;2022-11-23T13:22:16;7.70;;;1.38;;
71767;SDS011;59604;52.138;5.446;2022-11-23T13:27:53;6.03;;;1.15;;
71767;SDS011;59604;52.138;5.446;2022-11-23T13:30:29;7.20;;;1.17;;
71767;SDS011;59604;52.138;5.446;2022-11-23T13:35:56;6.55;;;1.33;;
71767;SDS011;59604;52.138;5.446;2022-11-23T13:38:35;5.85;;;0.98;;
71767;SDS011;59604;52.138;5.446;2022-11-23T13:44:30;5.45;;;1.10;;
71767;SDS011;59604;52.138;5.446;2022-11-23T13:46:58;7.10;;;1.13;;
71767;SDS011;59604;52.138;5.446;2022-11-23T13:57:22;3.85;;;1.08;;
71767;SDS011;59604;52.138;5.446;2022-11-23T13:59:49;4.70;;;0.85;;
71767;SDS011;59604;52.138;5.446;2022-11-23T14:02:25;9.07;;;1.30;;
71767;SDS011;59604;52.138;5.446;2022-11-23T14:07:57;4.65;;;1.00;;
71767;SDS011;59604;52.138;5.446;2022-11-23T14:10:28;4.47;;;1.00;;
71767;SDS011;59604;52.138;5.446;2022-11-23T14:34:43;4.63;;;1.10;;
71767;SDS011;59604;52.138;5.446;2022-11-23T14:42:56;5.55;;;0.93;;
71767;SDS011;59604;52.138;5.446;2022-11-23T14:45:26;4.75;;;1.10;;
71767;SDS011;59604;52.138;5.446;2022-11-23T14:47:55;4.03;;;0.90;;
71767;SDS011;59604;52.138;5.446;2022-11-23T14:52:53;5.80;;;0.95;;
71767;SDS011;59604;52.138;5.446;2022-11-23T14:55:23;5.18;;;0.88;;
71767;SDS011;59604;52.138;5.446;2022-11-23T14:58:01;5.80;;;0.98;;
71767;SDS011;59604;52.138;5.446;2022-11-23T15:00:40;6.13;;;1.00;;
71767;SDS011;59604;52.138;5.446;2022-11-23T15:03:14;4.75;;;1.27;;
71767;SDS011;59604;52.138;5.446;2022-11-23T15:06:06;5.78;;;1.00;;
71767;SDS011;59604;52.138;5.446;2022-11-23T15:08:43;6.35;;;1.20;;
71767;SDS011;59604;52.138;5.446;2022-11-23T15:11:16;4.95;;;1.25;;
71767;SDS011;59604;52.138;5.446;2022-11-23T15:13:47;7.97;;;1.15;;
71767;SDS011;59604;52.138;5.446;2022-11-23T15:16:16;5.35;;;1.23;;
71767;SDS011;59604;52.138;5.446;2022-11-23T15:18:45;4.85;;;1.50;;
71767;SDS011;59604;52.138;5.446;2022-11-23T15:21:21;5.88;;;1.20;;
71767;SDS011;59604;52.138;5.446;2022-11-23T15:23:54;5.05;;;1.23;;
71767;SDS011;59604;52.138;5.446;2022-11-23T15:26:29;6.35;;;1.40;;
71767;SDS011;59604;52.138;5.446;2022-11-23T15:29:27;8.43;;;1.73;;
71767;SDS011;59604;52.138;5.446;2022-11-23T15:32:03;8.45;;;1.30;;
71767;SDS011;59604;52.138;5.446;2022-11-23T15:35:03;5.72;;;1.20;;
71767;SDS011;59604;52.138;5.446;2022-11-23T15:37:40;6.80;;;1.40;;
71767;SDS011;59604;52.138;5.446;2022-11-23T15:40:11;7.47;;;1.23;;
71767;SDS011;59604;52.138;5.446;2022-11-23T15:42:39;8.50;;;1.48;;
71767;SDS011;59604;52.138;5.446;2022-11-23T15:45:31;4.65;;;1.42;;
71767;SDS011;59604;52.138;5.446;2022-11-23T15:53:20;6.88;;;1.63;;
71767;SDS011;59604;52.138;5.446;2022-11-23T15:55:52;4.93;;;1.38;;
71767;SDS011;59604;52.138;5.446;2022-11-23T15:58:20;7.28;;;1.58;;
71767;SDS011;59604;52.138;5.446;2022-11-23T16:03:54;5.45;;;1.50;;
71767;SDS011;59604;52.138;5.446;2022-11-23T16:06:32;5.38;;;1.60;;
71767;SDS011;59604;52.138;5.446;2022-11-23T16:09:02;7.60;;;2.25;;
71767;SDS011;59604;52.138;5.446;2022-11-23T16:14:54;6.65;;;1.52;;
71767;SDS011;59604;52.138;5.446;2022-11-23T16:17:42;7.55;;;2.58;;
71767;SDS011;59604;52.138;5.446;2022-11-23T16:20:11;15.35;;;6.90;;
71767;SDS011;59604;52.138;5.446;2022-11-23T16:22:41;9.82;;;4.38;;
71767;SDS011;59604;52.138;5.446;2022-11-23T16:27:57;8.80;;;2.30;;
71767;SDS011;59604;52.138;5.446;2022-11-23T16:30:24;7.13;;;2.60;;
71767;SDS011;59604;52.138;5.446;2022-11-23T16:32:52;7.35;;;2.40;;
71767;SDS011;59604;52.138;5.446;2022-11-23T16:35:20;6.15;;;1.92;;
71767;SDS011;59604;52.138;5.446;2022-11-23T16:37:46;7.10;;;2.53;;
71767;SDS011;59604;52.138;5.446;2022-11-23T16:40:13;8.35;;;3.20;;
71767;SDS011;59604;52.138;5.446;2022-11-23T16:42:40;8.32;;;3.50;;
71767;SDS011;59604;52.138;5.446;2022-11-23T16:45:07;8.98;;;2.80;;
71767;SDS011;59604;52.138;5.446;2022-11-23T16:47:35;8.38;;;2.55;;
71767;SDS011;59604;52.138;5.446;2022-11-23T16:50:17;6.82;;;2.17;;
71767;SDS011;59604;52.138;5.446;2022-11-23T16:52:44;5.57;;;2.30;;
71767;SDS011;59604;52.138;5.446;2022-11-23T16:55:18;6.43;;;2.67;;
71767;SDS011;59604;52.138;5.446;2022-11-23T16:57:45;6.57;;;2.80;;
71767;SDS011;59604;52.138;5.446;2022-11-23T17:00:18;7.72;;;3.22;;
71767;SDS011;59604;52.138;5.446;2022-11-23T17:02:46;8.07;;;3.85;;
71767;SDS011;59604;52.138;5.446;2022-11-23T17:05:17;7.00;;;3.20;;
71767;SDS011;59604;52.138;5.446;2022-11-23T17:07:45;12.95;;;4.35;;
71767;SDS011;59604;52.138;5.446;2022-11-23T17:10:12;8.75;;;3.70;;
71767;SDS011;59604;52.138;5.446;2022-11-23T17:12:43;8.73;;;4.35;;
71767;SDS011;59604;52.138;5.446;2022-11-23T17:15:16;8.05;;;3.03;;
71767;SDS011;59604;52.138;5.446;2022-11-23T17:17:45;7.43;;;3.55;;
71767;SDS011;59604;52.138;5.446;2022-11-23T17:20:12;9.73;;;4.03;;
71767;SDS011;59604;52.138;5.446;2022-11-23T17:22:39;10.82;;;3.78;;
71767;SDS011;59604;52.138;5.446;2022-11-23T17:25:06;8.95;;;4.20;;
71767;SDS011;59604;52.138;5.446;2022-11-23T17:27:40;9.50;;;3.95;;
71767;SDS011;59604;52.138;5.446;2022-11-23T17:30:14;9.60;;;3.80;;
71767;SDS011;59604;52.138;5.446;2022-11-23T17:32:46;10.23;;;4.05;;
71767;SDS011;59604;52.138;5.446;2022-11-23T17:35:15;9.80;;;3.88;;
71767;SDS011;59604;52.138;5.446;2022-11-23T17:37:42;9.55;;;3.72;;
71767;SDS011;59604;52.138;5.446;2022-11-23T17:40:17;8.63;;;4.07;;
71767;SDS011;59604;52.138;5.446;2022-11-23T17:42:47;9.13;;;3.80;;
71767;SDS011;59604;52.138;5.446;2022-11-23T17:45:13;9.65;;;4.20;;
71767;SDS011;59604;52.138;5.446;2022-11-23T17:47:41;10.02;;;4.13;;
71767;SDS011;59604;52.138;5.446;2022-11-23T17:50:12;10.90;;;4.32;;
71767;SDS011;59604;52.138;5.446;2022-11-23T17:52:43;8.60;;;4.13;;
71767;SDS011;59604;52.138;5.446;2022-11-23T17:55:11;10.15;;;4.20;;
71767;SDS011;59604;52.138;5.446;2022-11-23T17:57:39;11.57;;;5.05;;
71767;SDS011;59604;52.138;5.446;2022-11-23T18:00:09;9.77;;;4.68;;
71767;SDS011;59604;52.138;5.446;2022-11-23T18:02:43;9.45;;;4.70;;
71767;SDS011;59604;52.138;5.446;2022-11-23T18:05:11;10.93;;;4.68;;
71767;SDS011;59604;52.138;5.446;2022-11-23T18:07:46;9.38;;;4.57;;
71767;SDS011;59604;52.138;5.446;2022-11-23T18:10:14;9.10;;;4.80;;
71767;SDS011;59604;52.138;5.446;2022-11-23T18:12:41;13.10;;;6.00;;
71767;SDS011;59604;52.138;5.446;2022-11-23T18:15:09;12.48;;;5.07;;
71767;SDS011;59604;52.138;5.446;2022-11-23T18:17:37;11.95;;;5.45;;
71767;SDS011;59604;52.138;5.446;2022-11-23T18:20:04;10.93;;;5.63;;
71767;SDS011;59604;52.138;5.446;2022-11-23T18:22:33;12.70;;;5.90;;
71767;SDS011;59604;52.138;5.446;2022-11-23T18:25:00;12.77;;;6.00;;
71767;SDS011;59604;52.138;5.446;2022-11-23T18:27:27;13.52;;;6.10;;
71767;SDS011;59604;52.138;5.446;2022-11-23T18:29:55;14.35;;;6.60;;
71767;SDS011;59604;52.138;5.446;2022-11-23T18:32:21;13.77;;;5.97;;
71767;SDS011;59604;52.138;5.446;2022-11-23T18:34:48;15.23;;;6.13;;
71767;SDS011;59604;52.138;5.446;2022-11-23T18:37:15;13.88;;;6.40;;
71767;SDS011;59604;52.138;5.446;2022-11-23T18:39:41;13.48;;;6.65;;
71767;SDS011;59604;52.138;5.446;2022-11-23T18:42:08;13.35;;;6.50;;
71767;SDS011;59604;52.138;5.446;2022-11-23T18:44:35;12.13;;;6.20;;
71767;SDS011;59604;52.138;5.446;2022-11-23T18:47:02;13.43;;;6.32;;
71767;SDS011;59604;52.138;5.446;2022-11-23T18:49:29;12.35;;;5.90;;
71767;SDS011;59604;52.138;5.446;2022-11-23T18:51:57;16.45;;;6.68;;
71767;SDS011;59604;52.138;5.446;2022-11-23T18:54:23;13.27;;;6.40;;
71767;SDS011;59604;52.138;5.446;2022-11-23T18:56:50;14.52;;;6.05;;
71767;SDS011;59604;52.138;5.446;2022-11-23T18:59:17;12.32;;;5.75;;
71767;SDS011;59604;52.138;5.446;2022-11-23T19:02:05;15.13;;;6.47;;